Tonka Bay, Minnesota
Current Conditions -  °F | °C
As of 11:53 AM on Friday 28 Nov 2014 (Local Time) from KFCM Reporting Station
Overcast Overcast  
Wind Chill:   Ceiling: 1900
Heat Index: 19°   Visibility: 10mi
Dew Point: 11°   Wind: 8mph
Humidity: 71%   Direction: 110°ESE
Pressure: 29.92"   Gusts: NA
Location:  44.8924°N, 93.5895°W
Report Text: KFCM 281753Z 11007KT 10SM OVC019 M07/M12 A2992 RMK AO2 SLP149 T10721117 11072 21106 58017
Loading
Personal Weather Stations






























Interactive Weather Map New forecast layout! Learn more

10-Day Weather Forecast

Advertisements
Track Severe Weather on mobile